createdAt,value
2019-04-03T00:01:45.508Z,68.20
2019-04-03T00:04:15.710Z,68.20
2019-04-03T00:06:45.910Z,68.80
2019-04-03T00:09:16.162Z,69.70
2019-04-03T00:11:46.539Z,69.80
2019-04-03T00:14:16.727Z,69.10
2019-04-03T00:16:47.012Z,68.80
2019-04-03T00:19:17.791Z,69.00
2019-04-03T00:21:50.391Z,69.20
2019-04-03T00:24:22.141Z,69.20
2019-04-03T00:26:52.956Z,69.00
2019-04-03T00:29:23.324Z,68.40
2019-04-03T00:31:53.973Z,68.30
2019-04-03T00:34:24.613Z,68.70
2019-04-03T00:36:56.407Z,68.80
2019-04-03T00:39:26.656Z,68.80
2019-04-03T00:41:56.936Z,69.00
2019-04-03T00:44:27.392Z,69.20
2019-04-03T00:46:57.665Z,69.00
2019-04-03T00:49:28.095Z,68.60
2019-04-03T00:51:58.511Z,69.00
2019-04-03T00:54:30.908Z,68.50
2019-04-03T00:57:01.177Z,68.60
2019-04-03T00:59:31.856Z,68.50
2019-04-03T01:02:02.484Z,68.50
2019-04-03T01:04:33.239Z,68.60
2019-04-03T01:07:03.910Z,68.30
2019-04-03T01:09:34.350Z,68.20
2019-04-03T01:12:04.974Z,68.30
2019-04-03T01:14:35.410Z,68.10
2019-04-03T01:17:05.811Z,68.10
2019-04-03T01:19:36.887Z,68.90
2019-04-03T01:22:08.063Z,69.00
2019-04-03T01:24:38.747Z,68.70
2019-04-03T01:27:11.159Z,68.80
2019-04-03T01:29:42.963Z,68.80
2019-04-03T01:32:16.002Z,69.00
2019-04-03T01:34:47.687Z,69.00
2019-04-03T01:37:18.938Z,68.80
2019-04-03T01:39:50.843Z,68.30
2019-04-03T01:42:22.445Z,68.20
2019-04-03T01:44:55.020Z,68.00
2019-04-03T01:47:27.500Z,67.90
2019-04-03T01:49:58.570Z,68.10
2019-04-03T01:52:31.563Z,67.20
2019-04-03T01:55:03.360Z,66.80
2019-04-03T01:57:36.204Z,67.20
2019-04-03T02:00:08.187Z,67.30
2019-04-03T02:02:39.326Z,67.00
2019-04-03T02:05:12.143Z,67.40
2019-04-03T02:07:44.207Z,67.80
2019-04-03T02:10:20.912Z,68.60
2019-04-03T02:12:51.627Z,68.20
2019-04-03T02:15:22.329Z,67.70
2019-04-03T02:17:54.250Z,68.10
2019-04-03T02:20:26.781Z,67.80
2019-04-03T02:22:59.630Z,67.90
2019-04-03T02:25:29.975Z,67.30
2019-04-03T02:28:00.302Z,66.60
2019-04-03T02:30:30.616Z,66.20
2019-04-03T02:33:01.078Z,66.10
2019-04-03T02:35:32.564Z,65.90
2019-04-03T02:38:16.052Z,66.20
2019-04-03T02:40:46.519Z,66.50
2019-04-03T02:43:16.763Z,66.70
2019-04-03T02:45:47.172Z,67.40
2019-04-03T02:48:17.435Z,66.40
2019-04-03T02:50:48.423Z,66.20
2019-04-03T02:53:19.082Z,66.10
2019-04-03T02:55:49.315Z,65.90
2019-04-03T02:58:21.952Z,66.30
2019-04-03T03:00:51.524Z,66.50
2019-04-03T03:03:21.864Z,66.30
2019-04-03T03:06:31.797Z,66.80
2019-04-03T03:08:59.950Z,67.20
2019-04-03T03:11:30.351Z,67.40
2019-04-03T03:14:00.601Z,67.80
2019-04-03T03:16:30.798Z,67.90
2019-04-03T03:19:01.803Z,67.90
2019-04-03T03:21:32.678Z,67.80
2019-04-03T03:24:03.329Z,67.40
2019-04-03T03:26:36.240Z,67.60
2019-04-03T03:29:16.818Z,67.80
2019-04-03T03:32:03.017Z,67.80
2019-04-03T03:34:10.262Z,68.50
2019-04-03T03:36:41.445Z,68.20
2019-04-03T03:39:12.296Z,67.80
2019-04-03T03:41:43.125Z,67.20
2019-04-03T03:44:13.440Z,66.80
2019-04-03T03:46:44.184Z,66.70
2019-04-03T03:49:17.462Z,67.20
2019-04-03T03:51:46.372Z,67.40
2019-04-03T03:54:18.391Z,67.60
2019-04-03T03:56:48.728Z,67.40
2019-04-03T03:59:19.271Z,67.40
2019-04-03T04:01:49.818Z,67.50
2019-04-03T04:04:20.445Z,67.40
2019-04-03T04:06:51.088Z,67.40
2019-04-03T04:09:21.380Z,67.10
2019-04-03T04:11:52.021Z,66.80
2019-04-03T04:14:23.422Z,66.40
2019-04-03T04:16:54.613Z,66.60
2019-04-03T04:19:28.354Z,67.00
2019-04-03T04:21:57.449Z,68.40
2019-04-03T04:24:29.164Z,67.50
2019-04-03T04:27:00.744Z,67.20
2019-04-03T04:29:31.529Z,67.20
2019-04-03T04:32:01.706Z,67.50
2019-04-03T04:34:32.019Z,67.60
2019-04-03T04:37:03.179Z,67.40
2019-04-03T04:39:33.911Z,67.30
2019-04-03T04:42:04.752Z,67.40
2019-04-03T04:44:35.947Z,66.90
2019-04-03T04:47:06.317Z,67.20
2019-04-03T04:49:37.027Z,67.00
2019-04-03T04:52:07.789Z,66.90
2019-04-03T04:54:38.310Z,66.50
2019-04-03T04:57:09.485Z,66.30
2019-04-03T04:59:40.092Z,66.20
2019-04-03T05:02:10.489Z,65.80
2019-04-03T05:04:42.049Z,65.40
2019-04-03T05:07:12.609Z,65.60
2019-04-03T05:09:42.982Z,65.90
2019-04-03T05:12:13.203Z,65.90
2019-04-03T05:14:43.522Z,66.20
2019-04-03T05:17:13.714Z,66.00
2019-04-03T05:19:43.985Z,65.80
2019-04-03T05:22:14.859Z,65.90
2019-04-03T05:24:45.257Z,65.30
2019-04-03T05:27:15.502Z,65.50
2019-04-03T05:29:45.707Z,65.70
2019-04-03T05:32:16.055Z,65.60
2019-04-03T05:34:46.434Z,65.70
2019-04-03T05:37:20.002Z,65.60
2019-04-03T05:39:50.289Z,65.60
2019-04-03T05:42:20.602Z,65.40
2019-04-03T05:44:51.069Z,65.50
2019-04-03T05:47:21.671Z,66.10
2019-04-03T05:49:55.270Z,66.80
2019-04-03T05:52:24.022Z,66.40
2019-04-03T05:54:54.370Z,66.50
2019-04-03T05:57:25.119Z,65.70
2019-04-03T06:00:00.831Z,65.60
2019-04-03T06:02:27.739Z,65.40
2019-04-03T06:04:58.258Z,64.90
2019-04-03T06:07:28.512Z,64.80
2019-04-03T06:09:59.206Z,64.80
2019-04-03T06:12:29.294Z,64.80
2019-04-03T06:14:59.810Z,65.10
2019-04-03T06:17:30.094Z,64.20
2019-04-03T06:20:00.308Z,64.40
2019-04-03T06:22:30.504Z,64.30
2019-04-03T06:25:00.706Z,64.20
2019-04-03T06:27:30.970Z,66.00
2019-04-03T06:30:01.565Z,66.00
2019-04-03T06:32:32.260Z,66.80
2019-04-03T06:35:02.703Z,67.30
2019-04-03T06:37:34.371Z,68.80
2019-04-03T06:40:07.980Z,68.70
2019-04-03T06:42:38.163Z,67.30
2019-04-03T06:45:08.379Z,66.60
2019-04-03T06:47:39.009Z,66.00
2019-04-03T06:50:11.835Z,65.50
2019-04-03T06:52:41.120Z,63.80
2019-04-03T06:55:11.575Z,62.40
2019-04-03T06:57:41.937Z,62.00
2019-04-03T07:00:12.352Z,62.00
2019-04-03T07:02:42.710Z,61.20
2019-04-03T07:05:13.089Z,60.10
2019-04-03T07:07:43.393Z,59.50
2019-04-03T07:10:24.087Z,59.10
2019-04-03T07:12:46.463Z,59.90
2019-04-03T07:15:17.450Z,59.60
2019-04-03T07:17:47.725Z,59.70
2019-04-03T07:20:20.084Z,59.20
2019-04-03T07:22:59.382Z,59.20
2019-04-03T07:25:29.689Z,59.30
2019-04-03T07:27:59.870Z,59.70
2019-04-03T07:30:30.078Z,59.30
2019-04-03T07:33:00.262Z,60.90
2019-04-03T07:35:30.535Z,61.50
2019-04-03T07:38:00.739Z,61.00
2019-04-03T07:40:31.112Z,60.80
2019-04-03T07:43:01.603Z,60.60
2019-04-03T07:45:33.008Z,60.90
2019-04-03T07:48:06.705Z,61.60
2019-04-03T07:50:37.196Z,60.00
2019-04-03T07:53:07.825Z,60.20
2019-04-03T07:55:38.080Z,59.70
2019-04-03T07:58:08.355Z,59.60
2019-04-03T08:00:39.258Z,60.90
2019-04-03T08:03:09.834Z,61.00
2019-04-03T08:05:40.051Z,59.60
2019-04-03T08:08:10.483Z,57.90
2019-04-03T08:10:40.694Z,56.20
2019-04-03T08:13:10.892Z,56.70
2019-04-03T08:15:41.087Z,56.70
2019-04-03T08:18:11.262Z,57.50
2019-04-03T08:20:41.566Z,59.00
2019-04-03T08:23:12.010Z,58.30
2019-04-03T08:25:46.726Z,57.60
2019-04-03T08:28:14.400Z,57.40
2019-04-03T08:30:44.999Z,58.10
2019-04-03T08:33:18.319Z,57.70
2019-04-03T08:35:47.178Z,57.30
2019-04-03T08:38:17.382Z,57.50
2019-04-03T08:40:47.580Z,57.30
2019-04-03T08:43:17.766Z,56.70
2019-04-03T08:45:48.043Z,55.80
2019-04-03T08:48:18.754Z,55.90
2019-04-03T08:50:49.015Z,55.70
2019-04-03T08:53:39.339Z,57.30
2019-04-03T08:56:09.213Z,55.20
2019-04-03T08:58:39.591Z,55.60
2019-04-03T09:01:10.677Z,54.80
2019-04-03T09:03:41.543Z,55.40
2019-04-03T09:06:11.738Z,55.70
2019-04-03T09:08:42.022Z,57.00
2019-04-03T09:11:12.211Z,56.50
2019-04-03T09:13:43.073Z,56.10
2019-04-03T09:16:13.346Z,55.40
2019-04-03T09:18:43.529Z,54.90
2019-04-03T09:21:15.132Z,55.70
2019-04-03T09:23:45.698Z,54.00
2019-04-03T09:26:15.897Z,53.30
2019-04-03T09:28:46.079Z,52.70
2019-04-03T09:31:19.874Z,51.90
2019-04-03T09:33:49.556Z,51.00
2019-04-03T09:36:19.750Z,51.50
2019-04-03T09:38:53.484Z,50.80
2019-04-03T09:41:23.783Z,51.80
2019-04-03T09:43:54.706Z,50.70
2019-04-03T09:46:25.261Z,52.00
2019-04-03T09:48:55.932Z,52.50
2019-04-03T09:51:26.311Z,52.90
2019-04-03T09:53:57.906Z,52.40
2019-04-03T09:56:28.370Z,52.10
2019-04-03T09:58:58.583Z,53.30
2019-04-03T10:01:28.862Z,53.40
2019-04-03T10:03:59.142Z,53.20
2019-04-03T10:06:30.720Z,53.80
2019-04-03T10:09:01.267Z,54.70
2019-04-03T10:11:33.384Z,53.60
2019-04-03T10:14:03.574Z,52.40
2019-04-03T10:16:35.565Z,52.50
2019-04-03T10:19:05.881Z,53.70
2019-04-03T10:21:36.448Z,53.90
2019-04-03T10:25:00.100Z,53.00
2019-04-03T10:27:29.740Z,52.80
2019-04-03T10:29:59.994Z,53.60
2019-04-03T10:32:30.217Z,54.00
2019-04-03T10:35:00.450Z,52.30
2019-04-03T10:37:30.641Z,51.50
2019-04-03T10:40:00.810Z,49.90
2019-04-03T10:42:31.789Z,50.20
2019-04-03T10:45:05.475Z,50.80
2019-04-03T10:47:42.805Z,51.40
2019-04-03T10:50:08.751Z,50.80
2019-04-03T10:52:39.168Z,51.90
2019-04-03T10:55:09.394Z,50.40
2019-04-03T10:57:39.592Z,50.00
2019-04-03T11:00:11.509Z,49.90
2019-04-03T11:02:42.021Z,50.80
2019-04-03T11:05:12.468Z,51.20
2019-04-03T11:07:42.742Z,51.60
2019-04-03T11:10:13.367Z,51.60
2019-04-03T11:12:43.810Z,52.40
2019-04-03T11:15:14.860Z,51.20
2019-04-03T11:17:45.271Z,52.00
2019-04-03T11:20:15.445Z,53.30
2019-04-03T11:22:47.825Z,52.60
2019-04-03T11:25:17.776Z,52.20
2019-04-03T11:27:48.446Z,51.70
2019-04-03T11:30:23.531Z,51.70
2019-04-03T11:32:50.643Z,52.40
2019-04-03T11:35:22.074Z,52.40
2019-04-03T11:37:53.290Z,53.70
2019-04-03T11:40:25.335Z,52.90
2019-04-03T11:42:57.686Z,52.30
2019-04-03T11:45:28.265Z,51.20
2019-04-03T11:47:58.898Z,51.80
2019-04-03T11:50:29.116Z,51.60
2019-04-03T11:53:02.404Z,52.00
2019-04-03T11:55:32.239Z,50.80
2019-04-03T11:58:02.770Z,50.50
2019-04-03T12:00:34.575Z,51.50
2019-04-03T12:03:05.585Z,51.80
2019-04-03T12:05:36.123Z,52.70
2019-04-03T12:08:06.559Z,51.80
2019-04-03T12:10:37.490Z,52.10
2019-04-03T12:13:12.390Z,51.60
2019-04-03T12:15:41.326Z,52.00
2019-04-03T12:18:11.782Z,51.90
2019-04-03T12:20:44.890Z,51.80
2019-04-03T12:23:14.975Z,52.30
2019-04-03T12:25:45.171Z,52.40
2019-04-03T12:28:17.243Z,52.20
2019-04-03T12:30:47.510Z,52.90
2019-04-03T12:33:18.871Z,52.00
2019-04-03T12:35:49.747Z,50.40
2019-04-03T12:38:22.300Z,50.40
2019-04-03T12:40:52.316Z,49.80
2019-04-03T12:43:23.100Z,50.10
2019-04-03T12:45:53.271Z,50.60
2019-04-03T12:48:24.202Z,50.80
2019-04-03T12:50:54.803Z,51.90
2019-04-03T12:53:25.558Z,49.50
2019-04-03T12:55:57.746Z,49.90
2019-04-03T12:58:28.290Z,51.00
2019-04-03T13:00:58.491Z,51.20
2019-04-03T13:03:28.910Z,51.00
2019-04-03T13:05:59.591Z,50.90
2019-04-03T13:08:30.707Z,51.50
2019-04-03T13:11:00.946Z,53.20
2019-04-03T13:13:33.847Z,51.90
2019-04-03T13:16:04.248Z,52.00
2019-04-03T13:18:38.315Z,52.20
2019-04-03T13:21:09.352Z,51.70
2019-04-03T13:23:45.087Z,51.90
2019-04-03T13:26:14.827Z,51.20
2019-04-03T13:28:47.231Z,52.20
2019-04-03T13:31:18.219Z,52.80
2019-04-03T13:33:54.388Z,52.70
2019-04-03T13:36:25.150Z,53.30
2019-04-03T13:39:00.298Z,54.20
2019-04-03T13:41:30.128Z,53.00
2019-04-03T13:44:02.538Z,53.10
2019-04-03T13:46:32.723Z,52.80
2019-04-03T13:49:05.137Z,51.00
2019-04-03T13:51:35.487Z,50.20
2019-04-03T13:54:07.543Z,49.80
2019-04-03T13:56:43.108Z,49.90
2019-04-03T13:59:16.555Z,49.50
2019-04-03T14:01:47.131Z,50.00
2019-04-03T14:04:20.319Z,50.40
2019-04-03T14:06:51.682Z,49.60
2019-04-03T14:09:23.315Z,50.00
2019-04-03T14:11:53.562Z,50.70
2019-04-03T14:14:24.500Z,49.70
2019-04-03T14:16:55.047Z,49.90
2019-04-03T14:19:26.017Z,49.70
2019-04-03T14:21:58.837Z,49.30
2019-04-03T14:24:38.095Z,49.60
2019-04-03T14:27:02.219Z,51.20
2019-04-03T14:29:33.693Z,51.60
2019-04-03T14:32:04.247Z,51.40
2019-04-03T14:34:35.018Z,50.70
2019-04-03T14:37:05.312Z,51.40
2019-04-03T14:39:38.860Z,51.20
2019-04-03T14:42:08.259Z,50.00
2019-04-03T14:44:40.507Z,50.40
2019-04-03T14:47:11.298Z,50.40
2019-04-03T14:49:42.233Z,50.50
2019-04-03T14:52:13.268Z,49.40
2019-04-03T14:54:44.144Z,50.60
2019-04-03T14:57:20.861Z,50.50
2019-04-03T14:59:47.724Z,51.40
2019-04-03T15:02:18.062Z,51.60
2019-04-03T15:04:48.926Z,52.20
2019-04-03T15:07:19.839Z,52.40
2019-04-03T15:09:51.064Z,51.00
2019-04-03T15:12:22.240Z,51.40
2019-04-03T15:14:54.484Z,50.80
2019-04-03T15:17:26.309Z,50.90
2019-04-03T15:19:58.393Z,50.80
2019-04-03T15:22:32.473Z,50.50
2019-04-03T15:25:05.175Z,50.70
2019-04-03T15:27:35.890Z,50.40
2019-04-03T15:30:09.983Z,50.20
2019-04-03T15:32:43.454Z,50.10
2019-04-03T15:35:17.631Z,50.30
2019-04-03T15:37:49.334Z,50.30
2019-04-03T15:40:21.057Z,51.30
2019-04-03T15:42:53.681Z,50.90
2019-04-03T15:45:25.256Z,49.90
2019-04-03T15:47:57.550Z,50.70
2019-04-03T15:50:32.145Z,50.50
2019-04-03T15:53:03.868Z,51.20
2019-04-03T15:55:37.203Z,50.70
2019-04-03T15:58:08.146Z,51.30
2019-04-03T16:00:37.896Z,51.60
2019-04-03T16:03:08.340Z,52.40
2019-04-03T16:05:38.851Z,52.00
2019-04-03T16:08:12.416Z,51.20
2019-04-03T16:10:43.509Z,50.30
2019-04-03T16:13:17.578Z,49.80
2019-04-03T16:15:48.881Z,50.70
2019-04-03T16:18:21.244Z,51.40
2019-04-03T16:20:52.765Z,50.90
2019-04-03T16:23:34.274Z,50.40
2019-04-03T16:26:08.159Z,51.30
2019-04-03T16:28:39.279Z,51.70
2019-04-03T16:31:12.001Z,51.90
2019-04-03T16:33:45.579Z,51.80
2019-04-03T16:36:17.913Z,51.20
2019-04-03T16:38:50.480Z,51.30
2019-04-03T16:41:29.190Z,51.60
2019-04-03T16:44:01.590Z,52.20
2019-04-03T16:46:41.671Z,51.90
2019-04-03T16:49:15.427Z,51.90
2019-04-03T16:51:48.228Z,51.20
2019-04-03T16:54:22.938Z,51.10
2019-04-03T16:56:54.118Z,51.20
2019-04-03T16:59:27.957Z,51.50
2019-04-03T17:02:00.294Z,52.30
2019-04-03T17:04:35.631Z,52.20
2019-04-03T17:07:07.665Z,51.90
2019-04-03T17:09:41.189Z,51.60
2019-04-03T17:12:11.959Z,51.40
2019-04-03T17:14:42.223Z,51.30
2019-04-03T17:17:14.365Z,50.50
2019-04-03T17:19:45.758Z,50.90
2019-04-03T17:22:16.698Z,51.20
2019-04-03T17:24:49.514Z,51.30
2019-04-03T17:30:05.279Z,51.50
2019-04-03T17:32:36.463Z,52.10
2019-04-03T17:35:07.956Z,52.60
2019-04-03T17:37:39.342Z,52.60
2019-04-03T17:40:10.478Z,52.30
2019-04-03T17:42:40.868Z,52.20
2019-04-03T17:45:11.110Z,52.00
2019-04-03T17:47:41.297Z,51.80
2019-04-03T17:50:11.596Z,51.70
2019-04-03T17:52:41.771Z,51.60
2019-04-03T17:55:12.492Z,52.30
2019-04-03T17:57:45.331Z,52.00
2019-04-03T18:00:16.734Z,52.20
2019-04-03T18:02:47.108Z,52.10
2019-04-03T18:05:17.313Z,52.70
2019-04-03T18:07:47.498Z,52.70
2019-04-03T18:10:18.192Z,53.60
2019-04-03T18:13:03.411Z,53.10
2019-04-03T18:15:33.966Z,53.00
2019-04-03T18:18:04.319Z,52.50
2019-04-03T18:20:34.833Z,52.10
2019-04-03T18:23:05.071Z,52.00
2019-04-03T18:25:35.289Z,52.30
2019-04-03T18:28:14.882Z,52.40
2019-04-03T18:30:45.209Z,52.50
2019-04-03T18:33:17.010Z,52.20
2019-04-03T18:35:47.989Z,52.70
2019-04-03T18:38:18.170Z,54.30
2019-04-03T18:40:48.650Z,55.10
2019-04-03T18:43:21.600Z,55.90
2019-04-03T18:45:50.919Z,56.60
2019-04-03T18:48:21.515Z,56.70
2019-04-03T18:50:52.062Z,55.80
2019-04-03T18:53:22.257Z,57.10
2019-04-03T18:55:52.675Z,57.60
2019-04-03T18:58:23.830Z,58.10
2019-04-03T19:00:54.573Z,58.30
2019-04-03T19:03:25.161Z,59.10
2019-04-03T19:05:55.826Z,59.40
2019-04-03T19:08:26.083Z,60.50
2019-04-03T19:11:02.662Z,61.30
2019-04-03T19:13:29.121Z,61.40
2019-04-03T19:16:02.169Z,62.40
2019-04-03T19:18:33.879Z,62.80
2019-04-03T19:21:04.538Z,62.80
2019-04-03T19:23:35.082Z,62.40
2019-04-03T19:26:06.423Z,62.60
2019-04-03T19:28:36.902Z,62.80
2019-04-03T19:31:08.917Z,63.40
2019-04-03T19:33:40.448Z,64.50
2019-04-03T19:36:10.480Z,63.80
2019-04-03T19:38:40.908Z,63.00
2019-04-03T19:41:13.131Z,63.30
2019-04-03T19:43:44.034Z,63.30
2019-04-03T19:46:16.660Z,63.60
2019-04-03T19:48:46.911Z,63.80
2019-04-03T19:51:19.970Z,64.80
2019-04-03T19:53:59.245Z,64.80
2019-04-03T19:56:25.987Z,64.00
2019-04-03T19:58:59.435Z,63.50
2019-04-03T20:01:38.768Z,63.60
2019-04-03T20:04:09.097Z,63.40
2019-04-03T20:06:40.546Z,64.00
2019-04-03T20:09:12.297Z,64.10
2019-04-03T20:11:44.063Z,63.80
2019-04-03T20:14:15.214Z,64.20
2019-04-03T20:16:46.166Z,63.40
2019-04-03T20:19:17.444Z,62.90
2019-04-03T20:21:48.738Z,62.60
2019-04-03T20:24:18.905Z,62.80
2019-04-03T20:26:50.134Z,62.60
2019-04-03T20:29:21.070Z,62.90
2019-04-03T20:31:52.679Z,62.20
2019-04-03T20:34:23.994Z,62.70
2019-04-03T20:36:55.818Z,62.60
2019-04-03T20:39:28.744Z,63.20
2019-04-03T20:41:58.448Z,63.30
2019-04-03T20:44:48.723Z,63.00
2019-04-03T20:47:19.256Z,62.10
2019-04-03T20:49:50.407Z,62.40
2019-04-03T20:52:20.900Z,62.00
2019-04-03T20:54:53.177Z,62.10
2019-04-03T20:57:23.862Z,60.80
2019-04-03T21:00:02.052Z,59.90
2019-04-03T21:02:26.320Z,60.60
2019-04-03T21:04:56.882Z,60.90
2019-04-03T21:07:27.975Z,60.90
2019-04-03T21:10:00.634Z,60.30
2019-04-03T21:12:30.461Z,60.40
2019-04-03T21:15:08.373Z,60.20
2019-04-03T21:17:33.322Z,59.90
2019-04-03T21:20:04.922Z,60.00
2019-04-03T21:22:38.063Z,59.80
2019-04-03T21:25:08.591Z,59.90
2019-04-03T21:27:40.103Z,60.90
2019-04-03T21:30:28.684Z,61.10
2019-04-03T21:32:59.961Z,60.80
2019-04-03T21:35:33.244Z,61.40
2019-04-03T21:38:03.959Z,60.30
2019-04-03T21:40:34.246Z,60.20
2019-04-03T21:43:07.354Z,60.20
2019-04-03T21:45:38.542Z,60.00
2019-04-03T21:48:09.160Z,59.20
2019-04-03T21:50:39.723Z,59.60
2019-04-03T21:53:11.308Z,59.90
2019-04-03T21:55:41.195Z,59.70
2019-04-03T21:58:11.584Z,59.90
2019-04-03T22:01:00.579Z,60.60
2019-04-03T22:03:31.153Z,60.70
2019-04-03T22:06:02.994Z,61.20
2019-04-03T22:08:33.346Z,60.90
2019-04-03T22:11:04.673Z,61.80
2019-04-03T22:13:38.429Z,62.30
2019-04-03T22:16:10.182Z,62.10
2019-04-03T22:18:41.474Z,62.60
2019-04-03T22:21:13.538Z,63.10
2019-04-03T22:23:48.069Z,63.70
2019-04-03T22:26:19.207Z,64.00
2019-04-03T22:29:02.808Z,64.20
2019-04-03T22:31:33.293Z,63.50
2019-04-03T22:34:04.400Z,63.90
2019-04-03T22:36:35.442Z,64.80
2019-04-03T22:39:08.135Z,64.70
2019-04-03T22:41:40.941Z,64.40
2019-04-03T22:44:12.439Z,64.50
2019-04-03T22:46:44.327Z,64.80
2019-04-03T22:49:15.669Z,64.60
2019-04-03T22:51:46.473Z,65.60
2019-04-03T22:54:17.766Z,66.20
2019-04-03T22:56:48.975Z,66.30
2019-04-03T22:59:23.587Z,66.40
2019-04-03T23:01:53.347Z,66.30
2019-04-03T23:04:23.716Z,66.20
2019-04-03T23:06:56.558Z,66.30
2019-04-03T23:09:27.234Z,66.60
2019-04-03T23:11:57.786Z,66.50
2019-04-03T23:14:28.269Z,67.40
2019-04-03T23:16:58.863Z,67.20
2019-04-03T23:19:32.448Z,67.00
2019-04-03T23:22:03.312Z,67.20
2019-04-03T23:24:33.836Z,68.00
2019-04-03T23:27:04.623Z,67.90
2019-04-03T23:29:36.576Z,68.00
2019-04-03T23:32:07.523Z,67.20
2019-04-03T23:34:37.722Z,67.20
2019-04-03T23:37:08.058Z,67.00
2019-04-03T23:39:38.482Z,67.00
2019-04-03T23:42:08.730Z,67.20
2019-04-03T23:44:41.879Z,67.20
2019-04-03T23:47:11.174Z,67.40
2019-04-03T23:49:41.601Z,67.60
2019-04-03T23:52:11.857Z,67.10
2019-04-03T23:54:42.046Z,67.00
2019-04-03T23:57:12.642Z,66.60
2019-04-03T23:59:44.370Z,66.50
